createdAt,value
2022-10-14T00:01:21.606Z,42.63
2022-10-14T00:03:58.031Z,41.88
2022-10-14T00:06:31.479Z,40.58
2022-10-14T00:09:06.550Z,49.58
2022-10-14T00:11:36.671Z,42.47
2022-10-14T00:14:13.390Z,48.15
2022-10-14T00:16:45.725Z,46.75
2022-10-14T00:19:14.794Z,42.22
2022-10-14T00:21:45.381Z,54.80
2022-10-14T00:24:16.058Z,39.47
2022-10-14T00:26:43.911Z,38.00
2022-10-14T00:29:17.306Z,36.40
2022-10-14T00:31:45.188Z,36.95
2022-10-14T00:34:14.568Z,38.20
2022-10-14T00:36:43.423Z,42.97
2022-10-14T00:39:11.878Z,38.80
2022-10-14T00:41:40.105Z,41.50
2022-10-14T00:44:27.098Z,40.33
2022-10-14T00:46:55.988Z,45.40
2022-10-14T00:49:40.925Z,38.15
2022-10-14T00:52:19.254Z,41.50
2022-10-14T00:54:56.778Z,48.70
2022-10-14T00:57:26.362Z,39.03
2022-10-14T01:00:02.474Z,49.08
2022-10-14T01:02:30.759Z,45.05
2022-10-14T01:04:59.310Z,43.25
2022-10-14T01:07:47.213Z,41.83
2022-10-14T01:10:43.751Z,52.83
2022-10-14T01:13:48.017Z,42.25
2022-10-14T01:16:45.265Z,40.33
2022-10-14T01:19:59.091Z,43.25
2022-10-14T01:22:38.191Z,41.47
2022-10-14T01:25:34.407Z,42.20
2022-10-14T01:28:10.781Z,40.20
2022-10-14T01:30:50.499Z,37.78
2022-10-14T01:33:27.009Z,39.25
2022-10-14T01:36:12.705Z,38.25
2022-10-14T01:38:51.213Z,39.05
2022-10-14T01:41:25.873Z,38.17
2022-10-14T01:43:57.833Z,40.55
2022-10-14T01:46:27.501Z,41.65
2022-10-14T01:49:07.343Z,40.78
2022-10-14T01:51:49.783Z,41.70
2022-10-14T01:54:26.080Z,44.92
2022-10-14T01:56:58.590Z,40.70
2022-10-14T01:59:27.925Z,42.10
2022-10-14T02:01:55.242Z,42.67
2022-10-14T02:04:23.899Z,46.53
2022-10-14T02:07:10.601Z,42.95
2022-10-14T02:10:33.251Z,47.40
2022-10-14T02:13:37.063Z,46.08
2022-10-14T02:16:30.592Z,44.58
2022-10-14T02:19:25.693Z,41.13
2022-10-14T02:22:10.415Z,38.97
2022-10-14T02:24:48.573Z,40.15
2022-10-14T02:27:20.220Z,43.03
2022-10-14T02:29:49.514Z,51.40
2022-10-14T02:32:20.994Z,44.40
2022-10-14T02:34:53.400Z,40.38
2022-10-14T02:37:23.745Z,45.85
2022-10-14T02:40:17.901Z,42.13
2022-10-14T02:42:46.458Z,40.10
2022-10-14T02:45:15.806Z,44.97
2022-10-14T02:47:43.020Z,40.20
2022-10-14T02:50:11.028Z,44.40
2022-10-14T02:52:38.467Z,45.90
2022-10-14T02:55:06.140Z,45.47
2022-10-14T02:57:33.540Z,48.95
2022-10-14T03:00:00.937Z,49.88
2022-10-14T03:02:28.112Z,44.28
2022-10-14T03:04:55.248Z,53.35
2022-10-14T03:07:22.680Z,49.22
2022-10-14T03:09:50.047Z,49.45
2022-10-14T03:12:17.589Z,48.85
2022-10-14T03:14:44.765Z,44.03
2022-10-14T03:17:12.153Z,44.35
2022-10-14T03:19:39.339Z,41.60
2022-10-14T03:22:06.741Z,47.88
2022-10-14T03:24:34.009Z,44.90
2022-10-14T03:27:01.188Z,48.22
2022-10-14T03:29:29.066Z,50.03
2022-10-14T03:31:56.532Z,53.45
2022-10-14T03:34:23.775Z,52.33
2022-10-14T03:36:51.155Z,49.17
2022-10-14T03:39:18.443Z,51.40
2022-10-14T03:41:45.613Z,47.67
2022-10-14T03:44:13.281Z,43.85
2022-10-14T03:46:40.439Z,46.08
2022-10-14T03:49:07.862Z,46.20
2022-10-14T03:51:35.353Z,49.53
2022-10-14T03:54:02.556Z,46.60
2022-10-14T03:56:29.808Z,45.00
2022-10-14T03:58:57.212Z,47.42
2022-10-14T04:01:24.415Z,52.20
2022-10-14T04:03:52.093Z,47.85
2022-10-14T04:06:19.406Z,49.92
2022-10-14T04:08:46.598Z,43.65
2022-10-14T04:11:14.017Z,46.30
2022-10-14T04:13:41.160Z,42.88
2022-10-14T04:16:10.849Z,44.88
2022-10-14T04:18:38.438Z,45.45
2022-10-14T04:21:12.333Z,45.28
2022-10-14T04:23:39.876Z,46.10
2022-10-14T04:26:09.545Z,44.55
2022-10-14T04:28:37.863Z,49.72
2022-10-14T04:31:05.974Z,41.05
2022-10-14T04:33:35.001Z,44.78
2022-10-14T04:36:06.505Z,43.33
2022-10-14T04:38:34.281Z,49.50
2022-10-14T04:41:01.495Z,46.90
2022-10-14T04:43:28.694Z,41.58
2022-10-14T04:45:56.046Z,39.50
2022-10-14T04:48:23.561Z,43.75
2022-10-14T04:50:52.973Z,39.42
2022-10-14T04:53:22.453Z,39.70
2022-10-14T04:55:50.189Z,44.22
2022-10-14T04:58:17.826Z,44.38
2022-10-14T05:00:45.144Z,48.67
2022-10-14T05:03:12.354Z,47.60
2022-10-14T05:05:39.692Z,33.85
2022-10-14T05:08:07.165Z,35.83
2022-10-14T05:10:34.869Z,31.20
2022-10-14T05:13:02.558Z,36.95
2022-10-14T05:15:30.128Z,32.08
2022-10-14T05:17:57.545Z,37.08
2022-10-14T05:20:24.904Z,50.97
2022-10-14T05:22:52.124Z,55.55
2022-10-14T05:25:19.542Z,51.65
2022-10-14T05:27:46.973Z,40.65
2022-10-14T05:30:14.854Z,37.00
2022-10-14T05:32:42.019Z,49.92
2022-10-14T05:35:09.609Z,40.85
2022-10-14T05:37:37.148Z,48.95
2022-10-14T05:40:05.225Z,57.28
2022-10-14T05:42:32.681Z,49.83
2022-10-14T05:45:00.210Z,49.45
2022-10-14T05:47:27.541Z,51.80
2022-10-14T05:49:54.797Z,48.28
2022-10-14T05:52:22.597Z,44.50
2022-10-14T05:54:50.041Z,44.90
2022-10-14T05:57:17.441Z,34.88
2022-10-14T05:59:44.798Z,72.90
2022-10-14T06:02:12.422Z,67.65
2022-10-14T06:04:42.562Z,79.55
2022-10-14T06:07:10.502Z,52.33
2022-10-14T06:09:38.988Z,44.28
2022-10-14T06:12:06.820Z,44.28
2022-10-14T06:14:34.403Z,42.00
2022-10-14T06:17:01.646Z,45.10
2022-10-14T06:19:31.008Z,43.22
2022-10-14T06:21:58.979Z,40.05
2022-10-14T06:24:26.158Z,41.40
2022-10-14T06:26:53.456Z,41.38
2022-10-14T06:29:21.082Z,38.58
2022-10-14T06:31:48.291Z,36.70
2022-10-14T06:34:15.641Z,40.20
2022-10-14T06:36:43.090Z,38.17
2022-10-14T06:39:11.064Z,37.53
2022-10-14T06:41:38.424Z,35.97
2022-10-14T06:44:05.689Z,36.17
2022-10-14T06:46:32.919Z,40.08
2022-10-14T06:49:00.314Z,39.00
2022-10-14T06:51:27.524Z,36.63
2022-10-14T06:53:54.663Z,36.92
2022-10-14T06:56:22.022Z,37.15
2022-10-14T06:58:52.901Z,36.85
2022-10-14T07:01:20.251Z,41.00
2022-10-14T07:03:50.567Z,40.67
2022-10-14T07:06:19.998Z,36.25
2022-10-14T07:08:47.246Z,32.72
2022-10-14T07:11:14.660Z,35.80
2022-10-14T07:13:41.799Z,38.38
2022-10-14T07:16:09.010Z,34.75
2022-10-14T07:18:36.418Z,36.35
2022-10-14T07:21:05.494Z,38.45
2022-10-14T07:23:33.259Z,32.90
2022-10-14T07:26:01.387Z,35.10
2022-10-14T07:28:29.177Z,40.60
2022-10-14T07:31:11.265Z,37.03
2022-10-14T07:33:40.517Z,35.55
2022-10-14T07:36:19.933Z,35.97
2022-10-14T07:38:50.546Z,38.25
2022-10-14T07:41:22.869Z,38.70
2022-10-14T07:44:03.272Z,44.08
2022-10-14T07:46:33.096Z,39.38
2022-10-14T07:49:08.843Z,41.90
2022-10-14T07:51:37.150Z,41.97
2022-10-14T07:54:11.105Z,41.08
2022-10-14T07:56:41.906Z,40.08
2022-10-14T07:59:09.219Z,39.35
2022-10-14T08:01:37.368Z,38.42
2022-10-14T08:04:05.536Z,38.40
2022-10-14T08:06:33.230Z,35.97
2022-10-14T08:09:00.388Z,33.35
2022-10-14T08:11:29.682Z,37.03
2022-10-14T08:13:59.627Z,38.90
2022-10-14T08:16:30.566Z,41.95
2022-10-14T08:19:02.224Z,36.95
2022-10-14T08:21:29.452Z,35.33
2022-10-14T08:23:57.143Z,39.22
2022-10-14T08:26:35.051Z,45.38
2022-10-14T08:29:06.804Z,44.53
2022-10-14T08:31:34.547Z,36.50
2022-10-14T08:34:01.986Z,43.22
2022-10-14T08:36:29.647Z,44.55
2022-10-14T08:38:57.198Z,47.50
2022-10-14T08:41:55.386Z,40.38
2022-10-14T08:44:40.877Z,47.40
2022-10-14T08:47:15.711Z,44.15
2022-10-14T08:50:01.718Z,46.40
2022-10-14T08:52:41.980Z,51.17
2022-10-14T08:55:51.033Z,50.13
2022-10-14T08:58:51.400Z,51.00
2022-10-14T09:01:39.457Z,54.00
2022-10-14T09:04:12.304Z,45.50
2022-10-14T09:06:46.391Z,51.17
2022-10-14T09:09:38.224Z,47.28
2022-10-14T09:12:13.763Z,45.40
2022-10-14T09:14:54.541Z,50.28
2022-10-14T09:17:37.999Z,47.45
2022-10-14T09:20:25.664Z,46.47
2022-10-14T09:23:04.773Z,51.80
2022-10-14T09:25:37.416Z,45.70
2022-10-14T09:28:05.032Z,51.22
2022-10-14T09:30:40.597Z,48.42
2022-10-14T09:33:17.700Z,45.60
2022-10-14T09:35:45.652Z,45.03
2022-10-14T09:38:14.284Z,36.95
2022-10-14T09:40:49.607Z,35.55
2022-10-14T09:43:21.166Z,32.97
2022-10-14T09:46:00.549Z,31.50
2022-10-14T09:48:39.588Z,31.52
2022-10-14T09:51:44.962Z,36.83
2022-10-14T09:54:26.467Z,37.28
2022-10-14T09:57:08.052Z,34.05
2022-10-14T09:59:55.226Z,41.97
2022-10-14T10:02:32.872Z,37.50
2022-10-14T10:05:14.610Z,35.42
2022-10-14T10:07:41.842Z,35.92
2022-10-14T10:10:22.204Z,31.25
2022-10-14T10:12:49.701Z,32.40
2022-10-14T10:15:21.822Z,26.65
2022-10-14T10:17:50.592Z,25.63
2022-10-14T10:20:33.519Z,27.98
2022-10-14T10:23:19.658Z,29.50
2022-10-14T10:25:48.271Z,28.58
2022-10-14T10:28:32.938Z,30.75
2022-10-14T10:31:30.556Z,24.42
2022-10-14T10:34:03.679Z,24.08
2022-10-14T10:36:41.792Z,21.10
2022-10-14T10:39:59.052Z,20.60
2022-10-14T10:42:56.602Z,21.48
2022-10-14T10:46:14.168Z,21.58
2022-10-14T10:49:32.474Z,19.63
2022-10-14T10:52:21.993Z,21.77
2022-10-14T10:54:53.366Z,21.48
2022-10-14T10:58:10.286Z,19.13
2022-10-14T11:01:06.000Z,20.10
2022-10-14T11:03:45.228Z,20.10
2022-10-14T11:06:59.999Z,19.05
2022-10-14T11:10:39.454Z,17.83
2022-10-14T11:13:20.587Z,17.73
2022-10-14T11:16:05.136Z,18.63
2022-10-14T11:18:58.277Z,19.17
2022-10-14T11:21:45.127Z,21.00
2022-10-14T11:24:42.522Z,17.27
2022-10-14T11:27:21.009Z,21.55
2022-10-14T11:30:20.671Z,16.90
2022-10-14T11:33:26.134Z,21.17
2022-10-14T11:36:59.683Z,23.60
2022-10-14T11:40:18.866Z,25.73
2022-10-14T11:43:10.544Z,25.90
2022-10-14T11:45:52.646Z,30.73
2022-10-14T11:48:33.726Z,23.73
2022-10-14T11:51:26.530Z,26.85
2022-10-14T11:54:36.190Z,26.00
2022-10-14T11:57:28.846Z,24.85
2022-10-14T12:00:15.735Z,24.73
2022-10-14T12:02:59.770Z,25.83
2022-10-14T12:05:41.854Z,20.60
2022-10-14T12:08:23.302Z,19.30
2022-10-14T12:11:06.335Z,19.17
2022-10-14T12:13:47.774Z,21.60
2022-10-14T12:16:20.077Z,15.18
2022-10-14T12:18:56.912Z,18.83
2022-10-14T12:21:28.123Z,19.17
2022-10-14T12:24:04.978Z,20.73
2022-10-14T12:27:02.046Z,20.48
2022-10-14T12:29:36.123Z,21.05
2022-10-14T12:32:03.388Z,20.65
2022-10-14T12:34:37.926Z,24.73
2022-10-14T12:37:27.322Z,16.05
2022-10-14T12:40:03.620Z,17.98
2022-10-14T12:42:36.606Z,16.38
2022-10-14T12:45:21.678Z,17.70
2022-10-14T12:48:21.574Z,22.23
2022-10-14T12:50:53.301Z,25.02
2022-10-14T12:53:32.372Z,21.58
2022-10-14T12:56:04.305Z,24.88
2022-10-14T12:58:42.449Z,17.00
2022-10-14T13:01:24.243Z,15.38
2022-10-14T13:04:07.575Z,17.63
2022-10-14T13:06:42.490Z,16.63
2022-10-14T13:09:13.014Z,18.50
2022-10-14T13:11:51.555Z,16.92
2022-10-14T13:14:31.282Z,17.25
2022-10-14T13:17:01.954Z,22.02
2022-10-14T13:19:35.429Z,23.40
2022-10-14T13:22:28.530Z,17.27
2022-10-14T13:25:19.723Z,18.02
2022-10-14T13:28:16.268Z,19.20
2022-10-14T13:30:51.084Z,17.15
2022-10-14T13:33:31.206Z,21.23
2022-10-14T13:36:21.766Z,20.92
2022-10-14T13:39:00.772Z,18.08
2022-10-14T13:41:31.543Z,16.17
2022-10-14T13:44:02.245Z,14.82
2022-10-14T13:46:39.331Z,17.83
2022-10-14T13:52:12.761Z,15.43
2022-10-14T13:54:40.032Z,20.80
2022-10-14T13:57:47.917Z,22.00
2022-10-14T14:00:40.665Z,20.30
2022-10-14T14:03:38.236Z,23.02
2022-10-14T14:06:16.575Z,21.25
2022-10-14T14:08:56.578Z,20.73
2022-10-14T14:11:29.828Z,21.38
2022-10-14T14:14:35.920Z,26.67
2022-10-14T14:17:06.574Z,24.58
2022-10-14T14:19:42.386Z,24.70
2022-10-14T14:22:24.583Z,20.50
2022-10-14T14:24:53.438Z,20.67
2022-10-14T14:27:26.686Z,23.20
2022-10-14T14:29:55.434Z,21.15
2022-10-14T14:32:31.246Z,23.00
2022-10-14T14:35:01.066Z,22.27
2022-10-14T14:40:30.037Z,21.80
2022-10-14T14:43:03.865Z,22.77
2022-10-14T14:45:51.880Z,21.83
2022-10-14T14:48:20.557Z,22.55
2022-10-14T14:50:49.042Z,19.58
2022-10-14T14:53:23.988Z,21.27
2022-10-14T14:55:56.965Z,23.73
2022-10-14T14:58:39.379Z,26.45
2022-10-14T15:01:07.958Z,25.38
2022-10-14T15:04:13.341Z,25.65
2022-10-14T15:07:21.235Z,24.90
2022-10-14T15:10:01.947Z,24.38
2022-10-14T15:12:41.945Z,27.58
2022-10-14T15:15:33.483Z,29.08
2022-10-14T15:18:28.762Z,31.15
2022-10-14T15:21:19.553Z,30.45
2022-10-14T15:23:49.936Z,25.73
2022-10-14T15:26:27.796Z,30.35
2022-10-14T15:29:17.152Z,29.63
2022-10-14T15:32:06.429Z,27.15
2022-10-14T15:34:35.738Z,24.85
2022-10-14T15:37:02.981Z,26.55
2022-10-14T15:39:31.095Z,30.55
2022-10-14T15:41:58.559Z,29.20
2022-10-14T15:44:25.995Z,28.23
2022-10-14T15:47:11.639Z,32.28
2022-10-14T15:49:42.546Z,25.35
2022-10-14T15:52:17.793Z,29.23
2022-10-14T15:54:47.704Z,33.30
2022-10-14T15:57:16.894Z,33.88
2022-10-14T15:59:44.409Z,30.30
2022-10-14T16:02:31.060Z,32.38
2022-10-14T16:07:46.220Z,32.15
2022-10-14T16:10:17.933Z,36.58
2022-10-14T16:12:45.820Z,35.90
2022-10-14T16:15:31.773Z,36.95
2022-10-14T16:17:59.244Z,34.80
2022-10-14T16:20:27.596Z,36.83
2022-10-14T16:22:54.916Z,36.97
2022-10-14T16:25:41.051Z,37.45
2022-10-14T16:28:10.143Z,38.50
2022-10-14T16:30:51.154Z,39.05
2022-10-14T16:33:24.071Z,40.70
2022-10-14T16:35:55.501Z,40.55
2022-10-14T16:38:24.342Z,35.78
2022-10-14T16:41:00.963Z,35.20
2022-10-14T16:43:29.275Z,37.17
2022-10-14T16:46:03.693Z,36.17
2022-10-14T16:48:34.294Z,35.50
2022-10-14T16:51:02.136Z,36.50
2022-10-14T16:53:41.085Z,35.28
2022-10-14T16:56:39.207Z,39.00
2022-10-14T16:59:08.273Z,41.25
2022-10-14T17:01:36.037Z,41.33
2022-10-14T17:04:03.407Z,38.35
2022-10-14T17:06:30.803Z,35.38
2022-10-14T17:08:58.938Z,39.33
2022-10-14T17:11:28.249Z,42.42
2022-10-14T17:14:00.577Z,41.20
2022-10-14T17:16:30.184Z,36.95
2022-10-14T17:18:59.356Z,39.58
2022-10-14T17:21:29.616Z,37.58
2022-10-14T17:24:02.137Z,35.30
2022-10-14T17:26:32.914Z,35.95
2022-10-14T17:29:00.873Z,38.83
2022-10-14T17:31:29.533Z,36.17
2022-10-14T17:33:59.531Z,40.28
2022-10-14T17:36:30.849Z,41.53
2022-10-14T17:38:59.978Z,43.15
2022-10-14T17:41:30.843Z,37.88
2022-10-14T17:44:01.473Z,37.25
2022-10-14T17:46:32.251Z,39.45
2022-10-14T17:49:03.969Z,37.05
2022-10-14T17:51:32.542Z,41.75
2022-10-14T17:54:03.648Z,39.33
2022-10-14T17:56:34.172Z,39.05
2022-10-14T17:59:06.197Z,37.25
2022-10-14T18:02:00.845Z,35.20
2022-10-14T18:04:22.152Z,40.15
2022-10-14T18:06:49.605Z,35.63
2022-10-14T18:09:16.944Z,38.50
2022-10-14T18:14:33.571Z,38.95
2022-10-14T18:17:00.974Z,37.53
2022-10-14T18:19:28.389Z,34.85
2022-10-14T18:21:55.754Z,33.80
2022-10-14T18:24:23.879Z,36.50
2022-10-14T18:26:52.183Z,35.80
2022-10-14T18:29:19.580Z,39.90
2022-10-14T18:31:53.465Z,37.13
2022-10-14T18:34:22.525Z,37.15
2022-10-14T18:36:50.028Z,37.10
2022-10-14T18:39:17.274Z,40.20
2022-10-14T18:41:44.901Z,42.13
2022-10-14T18:44:12.614Z,41.08
2022-10-14T18:46:40.378Z,37.15
2022-10-14T18:49:11.798Z,37.40
2022-10-14T18:51:41.100Z,37.65
2022-10-14T18:54:21.391Z,42.72
2022-10-14T18:56:48.869Z,40.08
2022-10-14T18:59:21.191Z,44.30
2022-10-14T19:01:53.227Z,38.53
2022-10-14T19:04:25.622Z,39.55
2022-10-14T19:06:53.995Z,41.72
2022-10-14T19:09:28.778Z,41.80
2022-10-14T19:11:58.975Z,46.90
2022-10-14T19:14:28.832Z,45.30
2022-10-14T19:16:56.328Z,49.63
2022-10-14T19:19:23.633Z,42.10
2022-10-14T19:21:54.498Z,44.25
2022-10-14T19:24:21.987Z,42.08
2022-10-14T19:26:50.253Z,41.40
2022-10-14T19:29:17.968Z,46.17
2022-10-14T19:31:45.437Z,44.20
2022-10-14T19:34:16.162Z,42.40
2022-10-14T19:36:44.911Z,45.85
2022-10-14T19:39:16.213Z,47.20
2022-10-14T19:41:45.157Z,45.15
2022-10-14T19:44:15.290Z,45.65
2022-10-14T19:46:44.752Z,48.60
2022-10-14T19:49:16.261Z,46.20
2022-10-14T19:51:44.885Z,48.35
2022-10-14T19:54:13.745Z,49.55
2022-10-14T19:56:41.649Z,49.28
2022-10-14T19:59:10.750Z,52.38
2022-10-14T20:01:38.103Z,47.70
2022-10-14T20:04:11.641Z,52.47
2022-10-14T20:06:40.247Z,50.22
2022-10-14T20:09:08.789Z,47.42
2022-10-14T20:11:36.346Z,49.08
2022-10-14T20:14:03.907Z,49.95
2022-10-14T20:16:31.166Z,50.55
2022-10-14T20:18:58.529Z,51.45
2022-10-14T20:21:26.527Z,53.28
2022-10-14T20:23:53.718Z,54.55
2022-10-14T20:26:21.982Z,49.42
2022-10-14T20:28:50.093Z,51.60
2022-10-14T20:31:22.011Z,55.67
2022-10-14T20:33:49.691Z,54.17
2022-10-14T20:36:20.828Z,49.30
2022-10-14T20:38:49.747Z,48.72
2022-10-14T20:41:27.072Z,43.05
2022-10-14T20:43:56.578Z,46.92
2022-10-14T20:46:25.219Z,48.35
2022-10-14T20:48:59.018Z,41.20
2022-10-14T20:51:27.350Z,44.95
2022-10-14T20:54:02.759Z,40.92
2022-10-14T20:56:34.156Z,47.10
2022-10-14T20:59:05.605Z,47.53
2022-10-14T21:01:36.285Z,45.78
2022-10-14T21:04:07.779Z,45.85
2022-10-14T21:06:36.158Z,44.70
2022-10-14T21:09:03.808Z,44.60
2022-10-14T21:11:31.398Z,45.50
2022-10-14T21:14:00.631Z,46.05
2022-10-14T21:16:37.030Z,41.50
2022-10-14T21:19:09.005Z,45.00
2022-10-14T21:21:43.107Z,44.20
2022-10-14T21:24:17.909Z,44.13
2022-10-14T21:26:50.674Z,46.13
2022-10-14T21:29:22.538Z,42.88
2022-10-14T21:31:50.419Z,44.35
2022-10-14T21:34:17.782Z,41.25
2022-10-14T21:36:45.557Z,49.95
2022-10-14T21:39:18.569Z,42.42
2022-10-14T21:41:46.678Z,42.35
2022-10-14T21:44:20.832Z,44.78
2022-10-14T21:46:49.269Z,38.83
2022-10-14T21:49:16.914Z,40.28
2022-10-14T21:51:44.114Z,41.85
2022-10-14T21:54:12.789Z,43.25
2022-10-14T21:56:40.057Z,44.47
2022-10-14T21:59:07.846Z,43.53
2022-10-14T22:01:35.350Z,46.38
2022-10-14T22:04:06.319Z,46.08
2022-10-14T22:06:35.957Z,44.25
2022-10-14T22:09:07.650Z,38.78
2022-10-14T22:11:39.732Z,46.47
2022-10-14T22:14:12.565Z,42.58
2022-10-14T22:16:39.906Z,51.15
2022-10-14T22:19:07.970Z,48.75
2022-10-14T22:21:38.290Z,47.70
2022-10-14T22:26:36.134Z,44.22
2022-10-14T22:29:11.725Z,50.30
2022-10-14T22:31:39.408Z,48.20
2022-10-14T22:34:10.119Z,54.13
2022-10-14T22:36:37.610Z,48.92
2022-10-14T22:39:10.888Z,50.92
2022-10-14T22:41:38.696Z,48.13
2022-10-14T22:44:06.731Z,46.88
2022-10-14T22:46:37.340Z,51.47
2022-10-14T22:49:05.348Z,50.20
2022-10-14T22:51:40.620Z,55.97
2022-10-14T22:54:09.478Z,52.25
2022-10-14T22:56:37.793Z,50.55
2022-10-14T22:59:11.578Z,52.88
2022-10-14T23:01:42.466Z,53.90
2022-10-14T23:04:11.427Z,57.40
2022-10-14T23:06:39.608Z,57.78
2022-10-14T23:09:07.048Z,54.35
2022-10-14T23:11:34.304Z,47.08
2022-10-14T23:14:04.590Z,49.20
2022-10-14T23:16:35.742Z,48.75
2022-10-14T23:19:03.709Z,53.35
2022-10-14T23:21:34.938Z,50.08
2022-10-14T23:24:07.106Z,48.10
2022-10-14T23:26:36.405Z,44.30
2022-10-14T23:29:11.385Z,44.22
2022-10-14T23:31:40.244Z,47.97
2022-10-14T23:34:14.146Z,40.15
2022-10-14T23:36:42.094Z,42.03
2022-10-14T23:39:09.912Z,40.80
2022-10-14T23:41:37.305Z,46.72
2022-10-14T23:44:04.526Z,46.83
2022-10-14T23:46:31.947Z,45.45
2022-10-14T23:49:07.285Z,48.55
2022-10-14T23:51:42.287Z,42.20
2022-10-14T23:54:09.519Z,47.33
2022-10-14T23:56:36.764Z,43.88
2022-10-14T23:59:04.192Z,42.42
